USAF Academy, Colorado
Current Conditions -  °F | °C
As of 10:58 PM on Friday 24 Oct 2014 (Local Time) from KAFF Reporting Station
Clear Clear  
Wind Chill: 40°   Ceiling: Unl
Heat Index: 45°   Visibility: 10mi
Dew Point: 26°   Wind: 9mph
Humidity: 47%   Direction: 350°N
Pressure: 30.31"   Gusts: NA
Location:  39.01°N, 104.87°W
Report Text: KAFF 250458Z AUTO 35008KT 10SM CLR 07/M03 A3031 RMK AO2 SLP200 T00721035
Loading
Personal Weather Stations






























Interactive Weather Map
Tropical Storm Tracking
New forecast layout! Learn more

10-Day Weather Forecast

Advertisements
Track Severe Weather on mobile